sensor_id;sensor_type;location;lat;lon;timestamp;pressure;altitude;pressure_sealevel;temperature;humidity
9822;BME280;4950;46.042;14.472;2023-04-29T00:01:14;97862.00;;;11.85;69.86
9822;BME280;4950;46.042;14.472;2023-04-29T00:03:42;97854.66;;;11.89;69.89
9822;BME280;4950;46.042;14.472;2023-04-29T00:06:09;97863.09;;;11.91;69.41
9822;BME280;4950;46.042;14.472;2023-04-29T00:08:36;97858.53;;;11.93;69.44
9822;BME280;4950;46.042;14.472;2023-04-29T00:11:03;97852.53;;;11.92;69.90
9822;BME280;4950;46.042;14.472;2023-04-29T00:13:29;97839.97;;;11.96;69.94
9822;BME280;4950;46.042;14.472;2023-04-29T00:15:56;97832.94;;;11.96;69.85
9822;BME280;4950;46.042;14.472;2023-04-29T00:18:22;97837.97;;;11.98;69.59
9822;BME280;4950;46.042;14.472;2023-04-29T00:20:50;97826.38;;;12.00;69.57
9822;BME280;4950;46.042;14.472;2023-04-29T00:23:17;97811.78;;;11.99;69.64
9822;BME280;4950;46.042;14.472;2023-04-29T00:25:44;97812.13;;;11.96;69.70
9822;BME280;4950;46.042;14.472;2023-04-29T00:28:10;97815.53;;;11.97;69.68
9822;BME280;4950;46.042;14.472;2023-04-29T00:30:37;97797.94;;;11.99;69.64
9822;BME280;4950;46.042;14.472;2023-04-29T00:33:03;97794.72;;;11.97;69.57
9822;BME280;4950;46.042;14.472;2023-04-29T00:35:30;97785.50;;;11.94;69.48
9822;BME280;4950;46.042;14.472;2023-04-29T00:37:58;97794.38;;;12.00;69.46
9822;BME280;4950;46.042;14.472;2023-04-29T00:40:26;97796.34;;;11.98;69.38
9822;BME280;4950;46.042;14.472;2023-04-29T00:42:53;97790.72;;;11.94;69.56
9822;BME280;4950;46.042;14.472;2023-04-29T00:45:19;97787.00;;;11.89;69.77
9822;BME280;4950;46.042;14.472;2023-04-29T00:47:46;97792.91;;;11.76;70.00
9822;BME280;4950;46.042;14.472;2023-04-29T00:50:12;97796.41;;;11.68;70.83
9822;BME280;4950;46.042;14.472;2023-04-29T00:52:39;97792.47;;;11.57;71.10
9822;BME280;4950;46.042;14.472;2023-04-29T00:55:10;97785.84;;;11.55;71.42
9822;BME280;4950;46.042;14.472;2023-04-29T00:57:37;97782.38;;;11.48;71.99
9822;BME280;4950;46.042;14.472;2023-04-29T01:00:05;97783.00;;;11.50;71.93
9822;BME280;4950;46.042;14.472;2023-04-29T01:02:31;97783.44;;;11.53;72.12
9822;BME280;4950;46.042;14.472;2023-04-29T01:04:58;97783.50;;;11.60;71.71
9822;BME280;4950;46.042;14.472;2023-04-29T01:07:29;97775.97;;;11.65;71.55
9822;BME280;4950;46.042;14.472;2023-04-29T01:10:02;97767.81;;;11.68;71.80
9822;BME280;4950;46.042;14.472;2023-04-29T01:12:38;97765.00;;;11.70;71.90
9822;BME280;4950;46.042;14.472;2023-04-29T01:15:09;97771.56;;;11.65;71.97
9822;BME280;4950;46.042;14.472;2023-04-29T01:17:40;97785.00;;;11.69;72.20
9822;BME280;4950;46.042;14.472;2023-04-29T01:20:09;97787.44;;;11.71;72.23
9822;BME280;4950;46.042;14.472;2023-04-29T01:22:36;97781.16;;;11.65;72.33
9822;BME280;4950;46.042;14.472;2023-04-29T01:25:05;97791.56;;;11.65;72.34
9822;BME280;4950;46.042;14.472;2023-04-29T01:27:34;97785.19;;;11.68;72.35
9822;BME280;4950;46.042;14.472;2023-04-29T01:30:07;97788.63;;;11.68;72.11
9822;BME280;4950;46.042;14.472;2023-04-29T01:32:42;97781.97;;;11.65;72.19
9822;BME280;4950;46.042;14.472;2023-04-29T01:35:21;97776.97;;;11.64;72.20
9822;BME280;4950;46.042;14.472;2023-04-29T01:37:56;97777.94;;;11.63;72.08
9822;BME280;4950;46.042;14.472;2023-04-29T01:40:36;97773.53;;;11.63;72.57
9822;BME280;4950;46.042;14.472;2023-04-29T01:43:04;97786.19;;;11.66;72.27
9822;BME280;4950;46.042;14.472;2023-04-29T01:45:35;97788.63;;;11.68;72.22
9822;BME280;4950;46.042;14.472;2023-04-29T01:48:06;97795.59;;;11.68;72.12
9822;BME280;4950;46.042;14.472;2023-04-29T01:50:33;97790.94;;;11.63;73.14
9822;BME280;4950;46.042;14.472;2023-04-29T01:52:59;97786.53;;;11.63;73.11
9822;BME280;4950;46.042;14.472;2023-04-29T01:55:26;97775.97;;;11.65;72.82
9822;BME280;4950;46.042;14.472;2023-04-29T01:57:54;97775.97;;;11.65;72.98
9822;BME280;4950;46.042;14.472;2023-04-29T02:00:21;97776.97;;;11.64;73.15
9822;BME280;4950;46.042;14.472;2023-04-29T02:02:48;97763.97;;;11.64;72.94
9822;BME280;4950;46.042;14.472;2023-04-29T02:05:15;97762.16;;;11.64;72.90
9822;BME280;4950;46.042;14.472;2023-04-29T02:07:41;97756.78;;;11.66;72.75
9822;BME280;4950;46.042;14.472;2023-04-29T02:10:09;97760.38;;;11.65;73.17
9822;BME280;4950;46.042;14.472;2023-04-29T02:12:36;97759.31;;;11.59;73.33
9822;BME280;4950;46.042;14.472;2023-04-29T02:15:05;97757.88;;;11.57;73.35
9822;BME280;4950;46.042;14.472;2023-04-29T02:17:32;97752.84;;;11.55;73.38
9822;BME280;4950;46.042;14.472;2023-04-29T02:19:59;97748.03;;;11.52;73.64
9822;BME280;4950;46.042;14.472;2023-04-29T02:22:25;97746.25;;;11.53;73.68
9822;BME280;4950;46.042;14.472;2023-04-29T02:24:52;97748.22;;;11.51;73.65
9822;BME280;4950;46.042;14.472;2023-04-29T02:27:19;97736.47;;;11.55;73.47
9822;BME280;4950;46.042;14.472;2023-04-29T02:29:45;97735.41;;;11.49;73.44
9822;BME280;4950;46.042;14.472;2023-04-29T02:32:13;97736.38;;;11.48;72.99
9822;BME280;4950;46.042;14.472;2023-04-29T02:34:40;97716.59;;;11.47;73.31
9822;BME280;4950;46.042;14.472;2023-04-29T02:37:07;97718.38;;;11.46;73.03
9822;BME280;4950;46.042;14.472;2023-04-29T02:39:33;97718.00;;;11.50;73.10
9822;BME280;4950;46.042;14.472;2023-04-29T02:42:00;97724.72;;;11.44;72.95
9822;BME280;4950;46.042;14.472;2023-04-29T02:44:27;97727.34;;;11.44;72.63
9822;BME280;4950;46.042;14.472;2023-04-29T02:46:54;97723.31;;;11.41;73.00
9822;BME280;4950;46.042;14.472;2023-04-29T02:49:23;97714.91;;;11.39;73.03
9822;BME280;4950;46.042;14.472;2023-04-29T02:51:50;97712.28;;;11.39;72.82
9822;BME280;4950;46.042;14.472;2023-04-29T02:54:16;97722.69;;;11.39;73.29
9822;BME280;4950;46.042;14.472;2023-04-29T02:56:43;97730.66;;;11.38;73.47
9822;BME280;4950;46.042;14.472;2023-04-29T02:59:09;97732.47;;;11.37;74.00
9822;BME280;4950;46.042;14.472;2023-04-29T03:01:36;97721.28;;;11.37;73.44
9822;BME280;4950;46.042;14.472;2023-04-29T03:04:04;97712.84;;;11.35;73.77
9822;BME280;4950;46.042;14.472;2023-04-29T03:06:32;97719.81;;;11.34;73.77
9822;BME280;4950;46.042;14.472;2023-04-29T03:08:59;97717.97;;;11.28;73.67
9822;BME280;4950;46.042;14.472;2023-04-29T03:11:25;97713.94;;;11.25;73.39
9822;BME280;4950;46.042;14.472;2023-04-29T03:13:52;97707.56;;;11.28;73.84
9822;BME280;4950;46.042;14.472;2023-04-29T03:16:19;97701.75;;;11.26;73.39
9822;BME280;4950;46.042;14.472;2023-04-29T03:18:46;97693.34;;;11.24;74.07
9822;BME280;4950;46.042;14.472;2023-04-29T03:21:13;97695.88;;;11.17;73.89
9822;BME280;4950;46.042;14.472;2023-04-29T03:23:41;97703.84;;;11.16;73.85
9822;BME280;4950;46.042;14.472;2023-04-29T03:26:09;97713.59;;;11.14;73.80
9822;BME280;4950;46.042;14.472;2023-04-29T03:28:35;97713.16;;;11.10;74.17
9822;BME280;4950;46.042;14.472;2023-04-29T03:31:02;97695.78;;;11.11;74.18
9822;BME280;4950;46.042;14.472;2023-04-29T03:33:29;97693.34;;;11.09;73.81
9822;BME280;4950;46.042;14.472;2023-04-29T03:35:55;97700.97;;;11.11;74.01
9822;BME280;4950;46.042;14.472;2023-04-29T03:38:22;97710.38;;;11.12;73.63
9822;BME280;4950;46.042;14.472;2023-04-29T03:40:51;97710.22;;;11.13;74.08
9822;BME280;4950;46.042;14.472;2023-04-29T03:43:18;97715.59;;;11.12;73.73
9822;BME280;4950;46.042;14.472;2023-04-29T03:45:44;97715.59;;;11.12;73.83
9822;BME280;4950;46.042;14.472;2023-04-29T03:48:11;97716.03;;;11.15;73.80
9822;BME280;4950;46.042;14.472;2023-04-29T03:50:38;97714.59;;;11.13;73.69
9822;BME280;4950;46.042;14.472;2023-04-29T03:53:05;97713.00;;;11.12;74.08
9822;BME280;4950;46.042;14.472;2023-04-29T03:55:32;97716.22;;;11.14;73.70
9822;BME280;4950;46.042;14.472;2023-04-29T03:58:00;97714.59;;;11.13;73.92
9822;BME280;4950;46.042;14.472;2023-04-29T04:00:27;97719.16;;;11.11;74.33
9822;BME280;4950;46.042;14.472;2023-04-29T04:02:55;97728.56;;;11.12;74.45
9822;BME280;4950;46.042;14.472;2023-04-29T04:05:22;97722.56;;;11.11;74.94
9822;BME280;4950;46.042;14.472;2023-04-29T04:07:49;97722.38;;;11.13;74.97
9822;BME280;4950;46.042;14.472;2023-04-29T04:10:16;97721.13;;;11.09;75.16
9822;BME280;4950;46.042;14.472;2023-04-29T04:12:43;97720.16;;;11.10;74.67
9822;BME280;4950;46.042;14.472;2023-04-29T04:15:11;97722.84;;;11.01;74.97
9822;BME280;4950;46.042;14.472;2023-04-29T04:17:38;97729.31;;;11.05;74.91
9822;BME280;4950;46.042;14.472;2023-04-29T04:20:05;97735.03;;;11.01;75.30
9822;BME280;4950;46.042;14.472;2023-04-29T04:22:32;97740.84;;;11.03;74.95
9822;BME280;4950;46.042;14.472;2023-04-29T04:24:58;97742.47;;;11.04;75.37
9822;BME280;4950;46.042;14.472;2023-04-29T04:27:25;97740.50;;;11.06;75.30
9822;BME280;4950;46.042;14.472;2023-04-29T04:29:52;97735.66;;;11.03;75.72
9822;BME280;4950;46.042;14.472;2023-04-29T04:32:20;97739.69;;;11.05;75.63
9822;BME280;4950;46.042;14.472;2023-04-29T04:34:47;97738.25;;;11.03;75.78
9822;BME280;4950;46.042;14.472;2023-04-29T04:37:14;97744.00;;;10.98;75.79
9822;BME280;4950;46.042;14.472;2023-04-29T04:39:42;97741.22;;;11.00;75.94
9822;BME280;4950;46.042;14.472;2023-04-29T04:42:08;97734.22;;;11.00;76.17
9822;BME280;4950;46.042;14.472;2023-04-29T04:44:35;97738.63;;;11.00;75.96
9822;BME280;4950;46.042;14.472;2023-04-29T04:47:02;97742.75;;;10.94;76.25
9822;BME280;4950;46.042;14.472;2023-04-29T04:49:30;97744.34;;;10.95;76.78
9822;BME280;4950;46.042;14.472;2023-04-29T04:51:57;97742.00;;;11.00;76.64
9822;BME280;4950;46.042;14.472;2023-04-29T04:54:24;97743.81;;;11.00;76.71
9822;BME280;4950;46.042;14.472;2023-04-29T04:56:51;97743.81;;;11.00;77.06
9822;BME280;4950;46.042;14.472;2023-04-29T04:59:17;97751.16;;;10.96;77.59
9822;BME280;4950;46.042;14.472;2023-04-29T05:01:44;97746.31;;;10.93;77.42
9822;BME280;4950;46.042;14.472;2023-04-29T05:04:10;97752.13;;;10.95;78.11
9822;BME280;4950;46.042;14.472;2023-04-29T05:06:38;97745.59;;;10.99;77.89
9822;BME280;4950;46.042;14.472;2023-04-29T05:09:05;97757.59;;;11.00;77.74
9822;BME280;4950;46.042;14.472;2023-04-29T05:11:32;97758.41;;;11.01;77.54
9822;BME280;4950;46.042;14.472;2023-04-29T05:13:58;97759.84;;;11.03;77.53
9822;BME280;4950;46.042;14.472;2023-04-29T05:16:25;97762.44;;;11.03;76.83
9822;BME280;4950;46.042;14.472;2023-04-29T05:18:51;97759.75;;;10.97;77.12
9822;BME280;4950;46.042;14.472;2023-04-29T05:21:18;97761.63;;;11.03;76.95
9822;BME280;4950;46.042;14.472;2023-04-29T05:23:46;97759.47;;;11.06;76.45
9822;BME280;4950;46.042;14.472;2023-04-29T05:26:12;97757.44;;;11.02;76.56
9822;BME280;4950;46.042;14.472;2023-04-29T05:28:39;97757.25;;;11.03;76.30
9822;BME280;4950;46.042;14.472;2023-04-29T05:31:06;97753.72;;;11.11;76.02
9822;BME280;4950;46.042;14.472;2023-04-29T05:33:32;97759.75;;;11.12;75.90
9822;BME280;4950;46.042;14.472;2023-04-29T05:35:59;97765.13;;;11.10;76.14
9822;BME280;4950;46.042;14.472;2023-04-29T05:38:25;97762.53;;;11.10;75.63
9822;BME280;4950;46.042;14.472;2023-04-29T05:40:54;97769.41;;;11.18;75.13
9822;BME280;4950;46.042;14.472;2023-04-29T05:43:21;97767.44;;;11.20;74.40
9822;BME280;4950;46.042;14.472;2023-04-29T05:45:48;97780.34;;;11.28;73.72
9822;BME280;4950;46.042;14.472;2023-04-29T05:48:14;97784.19;;;11.32;73.45
9822;BME280;4950;46.042;14.472;2023-04-29T05:50:41;97786.78;;;11.32;73.55
9822;BME280;4950;46.042;14.472;2023-04-29T05:53:08;97791.63;;;11.35;73.00
9822;BME280;4950;46.042;14.472;2023-04-29T05:55:35;97793.22;;;11.36;72.96
9822;BME280;4950;46.042;14.472;2023-04-29T05:58:03;97788.91;;;11.43;73.55
9822;BME280;4950;46.042;14.472;2023-04-29T06:00:30;97793.84;;;11.38;74.18
9822;BME280;4950;46.042;14.472;2023-04-29T06:02:56;97788.91;;;11.43;74.28
9822;BME280;4950;46.042;14.472;2023-04-29T06:05:23;97787.38;;;11.49;73.88
9822;BME280;4950;46.042;14.472;2023-04-29T06:07:50;97791.06;;;11.55;73.13
9822;BME280;4950;46.042;14.472;2023-04-29T06:10:16;97804.50;;;11.58;73.31
9822;BME280;4950;46.042;14.472;2023-04-29T06:12:43;97802.75;;;11.65;73.96
9822;BME280;4950;46.042;14.472;2023-04-29T06:15:12;97796.66;;;11.73;73.36
9822;BME280;4950;46.042;14.472;2023-04-29T06:17:38;97793.06;;;11.74;72.91
9822;BME280;4950;46.042;14.472;2023-04-29T06:20:06;97792.69;;;11.77;nan
9822;BME280;4950;46.042;14.472;2023-04-29T06:22:33;97787.56;;;11.84;72.10
9822;BME280;4950;46.042;14.472;2023-04-29T06:25:00;97788.66;;;11.90;71.62
9822;BME280;4950;46.042;14.472;2023-04-29T06:27:26;97787.84;;;11.89;71.98
9822;BME280;4950;46.042;14.472;2023-04-29T06:29:53;97788.72;;;11.96;71.87
9822;BME280;4950;46.042;14.472;2023-04-29T06:32:21;97784.94;;;11.99;71.46
9822;BME280;4950;46.042;14.472;2023-04-29T06:34:48;97780.00;;;12.04;71.68
9822;BME280;4950;46.042;14.472;2023-04-29T06:37:15;97779.00;;;12.05;71.51
9822;BME280;4950;46.042;14.472;2023-04-29T06:39:42;97784.09;;;12.13;70.69
9822;BME280;4950;46.042;14.472;2023-04-29T06:42:08;97796.34;;;12.19;70.62
9822;BME280;4950;46.042;14.472;2023-04-29T06:44:35;97799.56;;;12.21;70.38
9822;BME280;4950;46.042;14.472;2023-04-29T06:47:02;97800.19;;;12.23;70.20
9822;BME280;4950;46.042;14.472;2023-04-29T06:49:30;97811.84;;;12.28;70.29
9822;BME280;4950;46.042;14.472;2023-04-29T06:51:56;97818.28;;;12.32;70.49
9822;BME280;4950;46.042;14.472;2023-04-29T06:54:23;97808.31;;;12.35;70.95
9822;BME280;4950;46.042;14.472;2023-04-29T06:56:51;97798.75;;;12.42;70.40
9822;BME280;4950;46.042;14.472;2023-04-29T06:59:18;97804.41;;;12.46;69.37
9822;BME280;4950;46.042;14.472;2023-04-29T07:01:45;97810.41;;;12.47;69.60
9822;BME280;4950;46.042;14.472;2023-04-29T07:04:11;97814.44;;;12.49;69.75
9822;BME280;4950;46.042;14.472;2023-04-29T07:06:39;97814.50;;;12.56;69.90
9822;BME280;4950;46.042;14.472;2023-04-29T07:09:06;97818.13;;;12.61;69.62
9822;BME280;4950;46.042;14.472;2023-04-29T07:11:32;97812.53;;;12.64;69.40
9822;BME280;4950;46.042;14.472;2023-04-29T07:13:59;97810.56;;;12.67;69.42
9822;BME280;4950;46.042;14.472;2023-04-29T07:16:25;97809.00;;;12.72;68.51
9822;BME280;4950;46.042;14.472;2023-04-29T07:18:52;97813.84;;;12.75;68.61
9822;BME280;4950;46.042;14.472;2023-04-29T07:21:19;97813.00;;;12.75;68.64
9822;BME280;4950;46.042;14.472;2023-04-29T07:23:47;97811.25;;;12.75;68.76
9822;BME280;4950;46.042;14.472;2023-04-29T07:26:14;97814.84;;;12.81;68.54
9822;BME280;4950;46.042;14.472;2023-04-29T07:28:42;97815.09;;;12.86;68.35
9822;BME280;4950;46.042;14.472;2023-04-29T07:31:09;97818.31;;;12.88;67.93
9822;BME280;4950;46.042;14.472;2023-04-29T07:33:36;97814.16;;;12.94;67.82
9822;BME280;4950;46.042;14.472;2023-04-29T07:36:03;97814.00;;;13.02;67.67
9822;BME280;4950;46.042;14.472;2023-04-29T07:38:31;97816.06;;;13.07;67.52
9822;BME280;4950;46.042;14.472;2023-04-29T07:40:59;97818.25;;;13.10;67.17
9822;BME280;4950;46.042;14.472;2023-04-29T07:43:26;97824.09;;;13.12;66.82
9822;BME280;4950;46.042;14.472;2023-04-29T07:45:52;97822.94;;;13.21;66.77
9822;BME280;4950;46.042;14.472;2023-04-29T07:48:19;97825.03;;;13.32;66.42
9822;BME280;4950;46.042;14.472;2023-04-29T07:50:46;97827.84;;;13.37;65.57
9822;BME280;4950;46.042;14.472;2023-04-29T07:53:13;97836.72;;;13.43;64.77
9822;BME280;4950;46.042;14.472;2023-04-29T07:55:42;97837.56;;;13.50;63.42
9822;BME280;4950;46.042;14.472;2023-04-29T07:58:10;97838.34;;;13.51;63.45
9822;BME280;4950;46.042;14.472;2023-04-29T08:00:36;97838.78;;;13.54;64.25
9822;BME280;4950;46.042;14.472;2023-04-29T08:03:03;97834.78;;;13.58;64.58
9822;BME280;4950;46.042;14.472;2023-04-29T08:05:30;97844.63;;;13.63;64.60
9822;BME280;4950;46.042;14.472;2023-04-29T08:07:57;97844.25;;;13.66;65.35
9822;BME280;4950;46.042;14.472;2023-04-29T08:10:24;97836.66;;;13.71;65.94
9822;BME280;4950;46.042;14.472;2023-04-29T08:12:51;97846.31;;;13.77;66.61
9822;BME280;4950;46.042;14.472;2023-04-29T08:15:19;97835.06;;;13.83;67.04
9822;BME280;4950;46.042;14.472;2023-04-29T08:17:45;97833.69;;;13.88;67.61
9822;BME280;4950;46.042;14.472;2023-04-29T08:20:12;97829.28;;;13.95;67.71
9822;BME280;4950;46.042;14.472;2023-04-29T08:22:39;97830.09;;;14.02;67.79
9822;BME280;4950;46.042;14.472;2023-04-29T08:25:07;97824.91;;;14.09;67.94
9822;BME280;4950;46.042;14.472;2023-04-29T08:27:34;97836.19;;;14.16;66.95
9822;BME280;4950;46.042;14.472;2023-04-29T08:30:01;97841.00;;;14.26;66.84
9822;BME280;4950;46.042;14.472;2023-04-29T08:32:28;97838.59;;;14.31;65.94
9822;BME280;4950;46.042;14.472;2023-04-29T08:34:55;97840.63;;;14.35;65.52
9822;BME280;4950;46.042;14.472;2023-04-29T08:37:22;97839.22;;;14.46;64.78
9822;BME280;4950;46.042;14.472;2023-04-29T08:39:48;97844.28;;;14.61;64.30
9822;BME280;4950;46.042;14.472;2023-04-29T08:42:17;97846.50;;;14.64;63.26
9822;BME280;4950;46.042;14.472;2023-04-29T08:44:45;97833.81;;;14.68;63.81
9822;BME280;4950;46.042;14.472;2023-04-29T08:47:13;97833.00;;;14.87;62.97
9822;BME280;4950;46.042;14.472;2023-04-29T08:49:42;97837.03;;;14.96;62.31
9822;BME280;4950;46.042;14.472;2023-04-29T08:52:08;97833.22;;;15.06;62.65
9822;BME280;4950;46.042;14.472;2023-04-29T08:54:35;97827.13;;;15.18;61.62
9822;BME280;4950;46.042;14.472;2023-04-29T08:57:03;97821.88;;;15.25;61.51
9822;BME280;4950;46.042;14.472;2023-04-29T08:59:31;97813.81;;;15.33;61.19
9822;BME280;4950;46.042;14.472;2023-04-29T09:01:59;97815.22;;;15.36;60.32
9822;BME280;4950;46.042;14.472;2023-04-29T09:04:32;97822.66;;;15.32;60.18
9822;BME280;4950;46.042;14.472;2023-04-29T09:07:04;97827.31;;;15.37;59.50
9822;BME280;4950;46.042;14.472;2023-04-29T09:09:33;97818.41;;;15.45;59.79
9822;BME280;4950;46.042;14.472;2023-04-29T09:12:00;97820.75;;;15.59;59.83
9822;BME280;4950;46.042;14.472;2023-04-29T09:14:27;97814.53;;;15.60;58.92
9822;BME280;4950;46.042;14.472;2023-04-29T09:16:57;97813.50;;;15.68;58.55
9822;BME280;4950;46.042;14.472;2023-04-29T09:19:31;97812.63;;;15.88;57.52
9822;BME280;4950;46.042;14.472;2023-04-29T09:21:58;97808.97;;;15.89;57.57
9822;BME280;4950;46.042;14.472;2023-04-29T09:24:27;97815.47;;;15.79;57.04
9822;BME280;4950;46.042;14.472;2023-04-29T09:26:55;97808.59;;;15.85;57.14
9822;BME280;4950;46.042;14.472;2023-04-29T09:29:22;97802.91;;;15.95;56.24
9822;BME280;4950;46.042;14.472;2023-04-29T09:31:49;97803.84;;;16.07;56.43
9822;BME280;4950;46.042;14.472;2023-04-29T09:34:29;97802.63;;;16.10;53.74
9822;BME280;4950;46.042;14.472;2023-04-29T09:36:56;97803.81;;;16.14;54.59
9822;BME280;4950;46.042;14.472;2023-04-29T09:39:23;97803.22;;;16.12;53.81
9822;BME280;4950;46.042;14.472;2023-04-29T09:41:59;97796.31;;;16.17;54.37
9822;BME280;4950;46.042;14.472;2023-04-29T09:44:28;97796.66;;;16.28;53.71
9822;BME280;4950;46.042;14.472;2023-04-29T09:46:56;97787.53;;;16.37;53.98
9822;BME280;4950;46.042;14.472;2023-04-29T09:49:24;97790.78;;;16.57;53.05
9822;BME280;4950;46.042;14.472;2023-04-29T09:51:52;97790.66;;;16.71;52.08
9822;BME280;4950;46.042;14.472;2023-04-29T09:54:20;97790.56;;;16.84;52.15
9822;BME280;4950;46.042;14.472;2023-04-29T09:56:48;97790.44;;;16.97;52.54
9822;BME280;4950;46.042;14.472;2023-04-29T09:59:17;97790.00;;;17.19;50.28
9822;BME280;4950;46.042;14.472;2023-04-29T10:01:47;97786.00;;;17.35;49.91
9822;BME280;4950;46.042;14.472;2023-04-29T10:04:15;97773.81;;;17.41;48.67
9822;BME280;4950;46.042;14.472;2023-04-29T10:06:43;97769.72;;;17.45;47.46
9822;BME280;4950;46.042;14.472;2023-04-29T10:09:12;97760.19;;;17.50;47.28
9822;BME280;4950;46.042;14.472;2023-04-29T10:11:40;97769.41;;;17.53;47.31
9822;BME280;4950;46.042;14.472;2023-04-29T10:14:11;97762.75;;;17.69;47.72
9822;BME280;4950;46.042;14.472;2023-04-29T10:16:44;97752.28;;;17.81;47.53
9822;BME280;4950;46.042;14.472;2023-04-29T10:19:18;97747.09;;;17.92;46.78
9822;BME280;4950;46.042;14.472;2023-04-29T10:21:49;97744.97;;;18.01;46.91
9822;BME280;4950;46.042;14.472;2023-04-29T10:24:17;97740.19;;;18.22;47.59
9822;BME280;4950;46.042;14.472;2023-04-29T10:26:46;97737.34;;;18.23;47.37
9822;BME280;4950;46.042;14.472;2023-04-29T10:29:14;97728.09;;;18.32;47.74
9822;BME280;4950;46.042;14.472;2023-04-29T10:31:45;97730.16;;;18.42;48.14
9822;BME280;4950;46.042;14.472;2023-04-29T10:34:12;97729.59;;;18.52;49.19
9822;BME280;4950;46.042;14.472;2023-04-29T10:36:42;97725.91;;;18.65;48.94
9822;BME280;4950;46.042;14.472;2023-04-29T10:39:18;97723.66;;;18.80;49.20
9822;BME280;4950;46.042;14.472;2023-04-29T10:41:47;97713.22;;;18.97;47.77
9822;BME280;4950;46.042;14.472;2023-04-29T10:44:16;97707.69;;;19.10;47.82
9822;BME280;4950;46.042;14.472;2023-04-29T10:46:44;97700.16;;;19.14;47.35
9822;BME280;4950;46.042;14.472;2023-04-29T10:49:10;97708.44;;;19.23;47.30
9822;BME280;4950;46.042;14.472;2023-04-29T10:51:40;97703.72;;;19.37;46.97
9822;BME280;4950;46.042;14.472;2023-04-29T10:54:08;97700.00;;;19.49;47.63
9822;BME280;4950;46.042;14.472;2023-04-29T10:56:46;97700.56;;;19.68;47.95
9822;BME280;4950;46.042;14.472;2023-04-29T10:59:15;97694.66;;;19.90;47.75
9822;BME280;4950;46.042;14.472;2023-04-29T11:01:48;97684.75;;;19.97;46.67
9822;BME280;4950;46.042;14.472;2023-04-29T11:04:16;97685.72;;;20.08;45.22
9822;BME280;4950;46.042;14.472;2023-04-29T11:06:45;97685.00;;;20.12;46.32
9822;BME280;4950;46.042;14.472;2023-04-29T11:09:14;97677.78;;;20.25;45.90
9822;BME280;4950;46.042;14.472;2023-04-29T11:11:42;97675.59;;;20.39;46.38
9822;BME280;4950;46.042;14.472;2023-04-29T11:14:10;97668.97;;;20.53;44.74
9822;BME280;4950;46.042;14.472;2023-04-29T11:16:47;97668.81;;;20.60;43.55
9822;BME280;4950;46.042;14.472;2023-04-29T11:19:15;97658.66;;;20.51;44.35
9822;BME280;4950;46.042;14.472;2023-04-29T11:21:43;97655.78;;;20.53;45.45
9822;BME280;4950;46.042;14.472;2023-04-29T11:24:10;97652.28;;;20.64;45.07
9822;BME280;4950;46.042;14.472;2023-04-29T11:26:37;97648.09;;;20.90;45.09
9822;BME280;4950;46.042;14.472;2023-04-29T11:29:04;97647.16;;;21.02;43.64
9822;BME280;4950;46.042;14.472;2023-04-29T11:31:32;97648.56;;;21.09;44.00
9822;BME280;4950;46.042;14.472;2023-04-29T11:34:02;97645.03;;;21.26;45.96
9822;BME280;4950;46.042;14.472;2023-04-29T11:36:30;97647.72;;;21.31;43.70
9822;BME280;4950;46.042;14.472;2023-04-29T11:38:59;97649.06;;;21.34;42.25
9822;BME280;4950;46.042;14.472;2023-04-29T11:41:26;97645.09;;;21.31;42.46
9822;BME280;4950;46.042;14.472;2023-04-29T11:43:56;97641.50;;;21.42;42.91
9822;BME280;4950;46.042;14.472;2023-04-29T11:46:22;97639.78;;;21.53;42.28
9822;BME280;4950;46.042;14.472;2023-04-29T11:48:49;97639.91;;;21.68;43.22
9822;BME280;4950;46.042;14.472;2023-04-29T11:51:18;97643.13;;;21.76;40.89
9822;BME280;4950;46.042;14.472;2023-04-29T11:53:45;97634.75;;;21.84;39.30
9822;BME280;4950;46.042;14.472;2023-04-29T11:56:12;97632.88;;;21.84;41.19
9822;BME280;4950;46.042;14.472;2023-04-29T11:58:41;97634.31;;;21.97;40.37
9822;BME280;4950;46.042;14.472;2023-04-29T12:01:07;97621.53;;;21.89;38.61
9822;BME280;4950;46.042;14.472;2023-04-29T12:03:34;97613.38;;;21.91;39.84
9822;BME280;4950;46.042;14.472;2023-04-29T12:06:01;97629.03;;;21.97;39.65
9822;BME280;4950;46.042;14.472;2023-04-29T12:08:29;97627.22;;;22.03;40.45
9822;BME280;4950;46.042;14.472;2023-04-29T12:10:58;97614.00;;;22.08;39.93
9822;BME280;4950;46.042;14.472;2023-04-29T12:13:28;97614.78;;;22.08;39.36
9822;BME280;4950;46.042;14.472;2023-04-29T12:15:56;97616.22;;;22.21;38.40
9822;BME280;4950;46.042;14.472;2023-04-29T12:18:23;97606.78;;;22.31;39.38
9822;BME280;4950;46.042;14.472;2023-04-29T12:20:52;97606.78;;;22.36;38.39
9822;BME280;4950;46.042;14.472;2023-04-29T12:23:21;97605.22;;;22.35;38.87
9822;BME280;4950;46.042;14.472;2023-04-29T12:25:51;97600.75;;;22.45;38.63
9822;BME280;4950;46.042;14.472;2023-04-29T12:28:18;97595.78;;;22.59;38.68
9822;BME280;4950;46.042;14.472;2023-04-29T12:30:45;97611.69;;;22.64;38.33
9822;BME280;4950;46.042;14.472;2023-04-29T12:33:15;97602.09;;;22.53;38.25
9822;BME280;4950;46.042;14.472;2023-04-29T12:35:44;97603.44;;;22.51;38.68
9822;BME280;4950;46.042;14.472;2023-04-29T12:38:10;97599.22;;;22.55;38.87
9822;BME280;4950;46.042;14.472;2023-04-29T12:40:38;97586.53;;;22.62;38.39
9822;BME280;4950;46.042;14.472;2023-04-29T12:43:10;97578.63;;;22.72;38.32
9822;BME280;4950;46.042;14.472;2023-04-29T12:45:38;97572.03;;;22.80;38.60
9822;BME280;4950;46.042;14.472;2023-04-29T12:48:05;97568.31;;;22.76;38.99
9822;BME280;4950;46.042;14.472;2023-04-29T12:50:33;97568.88;;;22.88;38.84
9822;BME280;4950;46.042;14.472;2023-04-29T12:53:01;97571.78;;;22.92;39.30
9822;BME280;4950;46.042;14.472;2023-04-29T12:55:27;97563.88;;;22.97;39.12
9822;BME280;4950;46.042;14.472;2023-04-29T12:57:54;97562.03;;;23.02;37.98
9822;BME280;4950;46.042;14.472;2023-04-29T13:00:22;97554.13;;;23.13;38.80
9822;BME280;4950;46.042;14.472;2023-04-29T13:02:50;97556.78;;;23.23;40.35
9822;BME280;4950;46.042;14.472;2023-04-29T13:05:16;97558.38;;;23.09;38.96
9822;BME280;4950;46.042;14.472;2023-04-29T13:07:43;97562.06;;;23.23;39.09
9822;BME280;4950;46.042;14.472;2023-04-29T13:10:10;97558.38;;;23.24;38.81
9822;BME280;4950;46.042;14.472;2023-04-29T13:12:37;97557.81;;;23.22;38.49